Huvudsida
METAR-TAF:

METAR-TAF

Flygplatser :

Linköping City Airport

Linköping, Sverige

latitud: 58-24N, longitud: 015-41E, höjd: 52 m

Aktuellt väderrapport

Denna rapport gjordes för 27 minuter sedan, klockan 09:20 UTC
Vind 11 kt från ost/nordost, varierande mellan nord/nordost och ost
Temperatur 23°C
Fuktighet 33%
Tryck 1030 hPa
Sikt 10 km eller mer

METAR: ESSL 270920Z AUTO 07011KT 030V090 9999 NCD 23/06 Q1030

Tid: 11:47 (09:47 UTC)


TAF: saknas

Aktuella väderrapporter och prognoser från 4000 flygplatser (METAR- och TAF-rapporter).

De tillgängliga stationerna syns som gula och röda prickar på kartan.

För musen över prickarna för att se namnen på stationerna.

Klicka sedan för att få väderrapporter och prognoser.

För att ändra kartan: Klicka på de gröna knapparna med ett svart kors på för att zooma in; den gröna knappen med ett streck på för att zooma ut; eller på de gröna pilarna för angränsande kartor.


METAR-TAF: